sensor_id;sensor_type;location;lat;lon;timestamp;P1;durP1;ratioP1;P2;durP2;ratioP2
50555;SDS011;36508;52.512;13.450;2023-02-28T00:00:58;7.10;;;5.00;;
50555;SDS011;36508;52.512;13.450;2023-02-28T00:03:27;5.60;;;4.80;;
50555;SDS011;36508;52.512;13.450;2023-02-28T00:05:53;9.20;;;6.37;;
50555;SDS011;36508;52.512;13.450;2023-02-28T00:08:19;6.77;;;4.97;;
50555;SDS011;36508;52.512;13.450;2023-02-28T00:10:45;7.37;;;5.43;;
50555;SDS011;36508;52.512;13.450;2023-02-28T00:13:11;9.73;;;6.13;;
50555;SDS011;36508;52.512;13.450;2023-02-28T00:15:39;6.57;;;4.97;;
50555;SDS011;36508;52.512;13.450;2023-02-28T00:18:12;4.47;;;4.07;;
50555;SDS011;36508;52.512;13.450;2023-02-28T00:20:38;6.03;;;5.10;;
50555;SDS011;36508;52.512;13.450;2023-02-28T00:23:07;4.50;;;3.90;;
50555;SDS011;36508;52.512;13.450;2023-02-28T00:25:39;6.30;;;4.90;;
50555;SDS011;36508;52.512;13.450;2023-02-28T00:28:14;5.33;;;4.83;;
50555;SDS011;36508;52.512;13.450;2023-02-28T00:30:43;6.90;;;4.50;;
50555;SDS011;36508;52.512;13.450;2023-02-28T00:33:09;7.30;;;5.80;;
50555;SDS011;36508;52.512;13.450;2023-02-28T00:35:35;7.80;;;5.87;;
50555;SDS011;36508;52.512;13.450;2023-02-28T00:38:04;7.20;;;6.50;;
50555;SDS011;36508;52.512;13.450;2023-02-28T00:40:32;6.47;;;4.80;;
50555;SDS011;36508;52.512;13.450;2023-02-28T00:43:01;5.57;;;5.03;;
50555;SDS011;36508;52.512;13.450;2023-02-28T00:45:30;9.30;;;4.87;;
50555;SDS011;36508;52.512;13.450;2023-02-28T00:47:56;5.90;;;5.40;;
50555;SDS011;36508;52.512;13.450;2023-02-28T00:50:25;7.10;;;3.70;;
50555;SDS011;36508;52.512;13.450;2023-02-28T00:52:51;6.40;;;5.77;;
50555;SDS011;36508;52.512;13.450;2023-02-28T00:55:16;5.30;;;4.80;;
50555;SDS011;36508;52.512;13.450;2023-02-28T00:57:43;5.73;;;4.90;;
50555;SDS011;36508;52.512;13.450;2023-02-28T01:00:09;6.40;;;5.10;;
50555;SDS011;36508;52.512;13.450;2023-02-28T01:02:36;4.10;;;3.73;;
50555;SDS011;36508;52.512;13.450;2023-02-28T01:05:07;5.33;;;3.87;;
50555;SDS011;36508;52.512;13.450;2023-02-28T01:07:36;6.63;;;4.07;;
50555;SDS011;36508;52.512;13.450;2023-02-28T01:10:12;7.60;;;6.90;;
50555;SDS011;36508;52.512;13.450;2023-02-28T01:12:38;9.90;;;6.60;;
50555;SDS011;36508;52.512;13.450;2023-02-28T01:15:09;5.30;;;4.77;;
50555;SDS011;36508;52.512;13.450;2023-02-28T01:17:36;5.63;;;4.00;;
50555;SDS011;36508;52.512;13.450;2023-02-28T01:20:02;5.60;;;4.77;;
50555;SDS011;36508;52.512;13.450;2023-02-28T01:22:39;4.97;;;4.40;;
50555;SDS011;36508;52.512;13.450;2023-02-28T01:25:05;6.40;;;4.80;;
50555;SDS011;36508;52.512;13.450;2023-02-28T01:27:31;5.30;;;4.80;;
50555;SDS011;36508;52.512;13.450;2023-02-28T01:29:58;6.47;;;5.73;;
50555;SDS011;36508;52.512;13.450;2023-02-28T01:32:24;4.97;;;4.53;;
50555;SDS011;36508;52.512;13.450;2023-02-28T01:34:56;5.07;;;4.53;;
50555;SDS011;36508;52.512;13.450;2023-02-28T01:37:25;7.30;;;6.17;;
50555;SDS011;36508;52.512;13.450;2023-02-28T01:39:51;8.03;;;4.80;;
50555;SDS011;36508;52.512;13.450;2023-02-28T01:42:17;5.10;;;4.60;;
50555;SDS011;36508;52.512;13.450;2023-02-28T01:47:43;9.30;;;5.70;;
50555;SDS011;36508;52.512;13.450;2023-02-28T01:50:21;5.27;;;4.40;;
50555;SDS011;36508;52.512;13.450;2023-02-28T01:52:59;6.13;;;5.23;;
50555;SDS011;36508;52.512;13.450;2023-02-28T01:55:30;6.87;;;6.17;;
50555;SDS011;36508;52.512;13.450;2023-02-28T01:57:58;6.33;;;5.33;;
50555;SDS011;36508;52.512;13.450;2023-02-28T02:00:27;6.30;;;5.63;;
50555;SDS011;36508;52.512;13.450;2023-02-28T02:02:59;6.10;;;5.43;;
50555;SDS011;36508;52.512;13.450;2023-02-28T02:05:34;8.97;;;6.43;;
50555;SDS011;36508;52.512;13.450;2023-02-28T02:08:07;9.77;;;7.73;;
50555;SDS011;36508;52.512;13.450;2023-02-28T02:24:26;7.53;;;5.60;;
50555;SDS011;36508;52.512;13.450;2023-02-28T02:27:05;5.70;;;5.20;;
50555;SDS011;36508;52.512;13.450;2023-02-28T02:35:54;7.07;;;6.50;;
50555;SDS011;36508;52.512;13.450;2023-02-28T02:44:27;7.23;;;5.40;;
50555;SDS011;36508;52.512;13.450;2023-02-28T02:47:05;6.57;;;5.80;;
50555;SDS011;36508;52.512;13.450;2023-02-28T02:49:42;8.63;;;6.83;;
50555;SDS011;36508;52.512;13.450;2023-02-28T02:52:12;7.00;;;6.13;;
50555;SDS011;36508;52.512;13.450;2023-02-28T02:54:48;6.53;;;5.77;;
50555;SDS011;36508;52.512;13.450;2023-02-28T02:57:26;7.80;;;5.97;;
50555;SDS011;36508;52.512;13.450;2023-02-28T03:00:08;7.00;;;6.30;;
50555;SDS011;36508;52.512;13.450;2023-02-28T03:02:35;7.73;;;6.10;;
50555;SDS011;36508;52.512;13.450;2023-02-28T03:05:04;9.57;;;6.40;;
50555;SDS011;36508;52.512;13.450;2023-02-28T03:07:37;8.60;;;6.50;;
50555;SDS011;36508;52.512;13.450;2023-02-28T03:10:25;6.90;;;6.00;;
50555;SDS011;36508;52.512;13.450;2023-02-28T03:12:57;8.80;;;5.83;;
50555;SDS011;36508;52.512;13.450;2023-02-28T03:15:41;8.93;;;6.80;;
50555;SDS011;36508;52.512;13.450;2023-02-28T03:24:33;6.80;;;6.20;;
50555;SDS011;36508;52.512;13.450;2023-02-28T03:27:29;6.53;;;5.90;;
50555;SDS011;36508;52.512;13.450;2023-02-28T03:30:06;8.07;;;6.50;;
50555;SDS011;36508;52.512;13.450;2023-02-28T03:33:02;7.97;;;6.13;;
50555;SDS011;36508;52.512;13.450;2023-02-28T03:35:34;9.20;;;6.63;;
50555;SDS011;36508;52.512;13.450;2023-02-28T03:41:06;13.20;;;6.87;;
50555;SDS011;36508;52.512;13.450;2023-02-28T03:43:54;7.67;;;6.47;;
50555;SDS011;36508;52.512;13.450;2023-02-28T03:46:24;6.67;;;6.10;;
50555;SDS011;36508;52.512;13.450;2023-02-28T03:48:55;11.50;;;6.00;;
50555;SDS011;36508;52.512;13.450;2023-02-28T03:51:28;7.70;;;6.07;;
50555;SDS011;36508;52.512;13.450;2023-02-28T03:54:01;7.50;;;6.57;;
50555;SDS011;36508;52.512;13.450;2023-02-28T03:57:07;8.43;;;7.07;;
50555;SDS011;36508;52.512;13.450;2023-02-28T03:59:32;8.70;;;6.97;;
50555;SDS011;36508;52.512;13.450;2023-02-28T04:02:02;6.57;;;5.93;;
50555;SDS011;36508;52.512;13.450;2023-02-28T04:04:32;11.53;;;6.57;;
50555;SDS011;36508;52.512;13.450;2023-02-28T04:07:08;6.50;;;5.90;;
50555;SDS011;36508;52.512;13.450;2023-02-28T04:09:40;6.70;;;6.10;;
50555;SDS011;36508;52.512;13.450;2023-02-28T04:12:06;11.60;;;6.40;;
50555;SDS011;36508;52.512;13.450;2023-02-28T04:14:32;6.60;;;5.87;;
50555;SDS011;36508;52.512;13.450;2023-02-28T04:16:58;9.70;;;7.30;;
50555;SDS011;36508;52.512;13.450;2023-02-28T04:19:24;8.57;;;6.07;;
50555;SDS011;36508;52.512;13.450;2023-02-28T04:21:51;6.50;;;5.87;;
50555;SDS011;36508;52.512;13.450;2023-02-28T04:24:19;6.43;;;5.70;;
50555;SDS011;36508;52.512;13.450;2023-02-28T04:29:37;6.67;;;5.93;;
50555;SDS011;36508;52.512;13.450;2023-02-28T04:32:09;6.13;;;5.50;;
50555;SDS011;36508;52.512;13.450;2023-02-28T04:34:38;6.53;;;6.00;;
50555;SDS011;36508;52.512;13.450;2023-02-28T04:37:07;9.07;;;7.03;;
50555;SDS011;36508;52.512;13.450;2023-02-28T04:39:35;7.30;;;6.47;;
50555;SDS011;36508;52.512;13.450;2023-02-28T04:42:01;8.13;;;7.23;;
50555;SDS011;36508;52.512;13.450;2023-02-28T04:44:28;7.17;;;5.63;;
50555;SDS011;36508;52.512;13.450;2023-02-28T04:46:59;9.20;;;6.80;;
50555;SDS011;36508;52.512;13.450;2023-02-28T04:49:25;5.90;;;5.40;;
50555;SDS011;36508;52.512;13.450;2023-02-28T04:51:54;9.30;;;6.77;;
50555;SDS011;36508;52.512;13.450;2023-02-28T04:54:23;7.63;;;6.80;;
50555;SDS011;36508;52.512;13.450;2023-02-28T04:56:53;6.73;;;5.70;;
50555;SDS011;36508;52.512;13.450;2023-02-28T04:59:22;9.00;;;6.60;;
50555;SDS011;36508;52.512;13.450;2023-02-28T05:01:48;8.10;;;6.50;;
50555;SDS011;36508;52.512;13.450;2023-02-28T05:04:14;7.97;;;5.73;;
50555;SDS011;36508;52.512;13.450;2023-02-28T05:06:40;8.90;;;6.37;;
50555;SDS011;36508;52.512;13.450;2023-02-28T05:09:09;9.83;;;7.00;;
50555;SDS011;36508;52.512;13.450;2023-02-28T05:11:56;8.50;;;7.60;;
50555;SDS011;36508;52.512;13.450;2023-02-28T05:14:23;6.10;;;5.50;;
50555;SDS011;36508;52.512;13.450;2023-02-28T05:16:53;8.00;;;7.20;;
50555;SDS011;36508;52.512;13.450;2023-02-28T05:19:19;7.80;;;7.10;;
50555;SDS011;36508;52.512;13.450;2023-02-28T05:21:54;6.97;;;6.33;;
50555;SDS011;36508;52.512;13.450;2023-02-28T05:24:21;6.73;;;6.10;;
50555;SDS011;36508;52.512;13.450;2023-02-28T05:26:53;10.10;;;7.27;;
50555;SDS011;36508;52.512;13.450;2023-02-28T05:29:22;10.87;;;7.70;;
50555;SDS011;36508;52.512;13.450;2023-02-28T05:31:48;8.40;;;6.77;;
50555;SDS011;36508;52.512;13.450;2023-02-28T05:34:15;8.97;;;8.10;;
50555;SDS011;36508;52.512;13.450;2023-02-28T05:36:41;10.83;;;8.60;;
50555;SDS011;36508;52.512;13.450;2023-02-28T05:39:10;8.87;;;7.40;;
50555;SDS011;36508;52.512;13.450;2023-02-28T05:41:43;8.60;;;7.80;;
50555;SDS011;36508;52.512;13.450;2023-02-28T05:44:09;8.90;;;8.00;;
50555;SDS011;36508;52.512;13.450;2023-02-28T05:46:36;8.07;;;7.43;;
50555;SDS011;36508;52.512;13.450;2023-02-28T05:49:02;9.23;;;8.20;;
50555;SDS011;36508;52.512;13.450;2023-02-28T05:51:28;7.93;;;7.20;;
50555;SDS011;36508;52.512;13.450;2023-02-28T05:54:00;8.90;;;8.00;;
50555;SDS011;36508;52.512;13.450;2023-02-28T05:56:32;8.27;;;7.47;;
50555;SDS011;36508;52.512;13.450;2023-02-28T05:59:00;8.03;;;7.17;;
50555;SDS011;36508;52.512;13.450;2023-02-28T06:04:00;10.90;;;7.80;;
50555;SDS011;36508;52.512;13.450;2023-02-28T06:06:26;11.03;;;9.60;;
50555;SDS011;36508;52.512;13.450;2023-02-28T06:08:59;12.80;;;8.73;;
50555;SDS011;36508;52.512;13.450;2023-02-28T06:11:26;10.87;;;7.27;;
50555;SDS011;36508;52.512;13.450;2023-02-28T06:13:56;14.20;;;8.57;;
50555;SDS011;36508;52.512;13.450;2023-02-28T06:16:24;11.97;;;7.83;;
50555;SDS011;36508;52.512;13.450;2023-02-28T06:18:57;11.00;;;9.20;;
50555;SDS011;36508;52.512;13.450;2023-02-28T06:21:24;10.60;;;9.47;;
50555;SDS011;36508;52.512;13.450;2023-02-28T06:23:52;12.83;;;7.97;;
50555;SDS011;36508;52.512;13.450;2023-02-28T06:26:18;10.43;;;8.07;;
50555;SDS011;36508;52.512;13.450;2023-02-28T06:28:45;11.70;;;8.40;;
50555;SDS011;36508;52.512;13.450;2023-02-28T06:31:15;10.13;;;8.50;;
50555;SDS011;36508;52.512;13.450;2023-02-28T06:33:45;9.97;;;7.93;;
50555;SDS011;36508;52.512;13.450;2023-02-28T06:36:14;13.13;;;9.07;;
50555;SDS011;36508;52.512;13.450;2023-02-28T06:38:46;10.33;;;9.00;;
50555;SDS011;36508;52.512;13.450;2023-02-28T06:41:20;10.50;;;9.10;;
50555;SDS011;36508;52.512;13.450;2023-02-28T06:43:56;13.40;;;7.70;;
50555;SDS011;36508;52.512;13.450;2023-02-28T06:46:25;9.57;;;8.57;;
50555;SDS011;36508;52.512;13.450;2023-02-28T06:48:54;11.13;;;8.07;;
50555;SDS011;36508;52.512;13.450;2023-02-28T06:51:20;12.13;;;8.90;;
50555;SDS011;36508;52.512;13.450;2023-02-28T06:53:47;11.87;;;9.30;;
50555;SDS011;36508;52.512;13.450;2023-02-28T06:56:17;12.83;;;11.43;;
50555;SDS011;36508;52.512;13.450;2023-02-28T06:58:49;7.77;;;7.00;;
50555;SDS011;36508;52.512;13.450;2023-02-28T07:01:17;9.83;;;8.90;;
50555;SDS011;36508;52.512;13.450;2023-02-28T07:03:48;11.77;;;10.00;;
50555;SDS011;36508;52.512;13.450;2023-02-28T07:06:18;12.03;;;10.80;;
50555;SDS011;36508;52.512;13.450;2023-02-28T07:08:47;11.57;;;9.80;;
50555;SDS011;36508;52.512;13.450;2023-02-28T07:11:23;14.80;;;10.40;;
50555;SDS011;36508;52.512;13.450;2023-02-28T07:13:51;17.90;;;12.13;;
50555;SDS011;36508;52.512;13.450;2023-02-28T07:16:21;19.33;;;13.03;;
50555;SDS011;36508;52.512;13.450;2023-02-28T07:18:52;24.33;;;14.33;;
50555;SDS011;36508;52.512;13.450;2023-02-28T07:21:18;18.93;;;11.90;;
50555;SDS011;36508;52.512;13.450;2023-02-28T07:23:44;15.23;;;12.30;;
50555;SDS011;36508;52.512;13.450;2023-02-28T07:26:11;17.40;;;12.40;;
50555;SDS011;36508;52.512;13.450;2023-02-28T07:28:39;17.00;;;10.80;;
50555;SDS011;36508;52.512;13.450;2023-02-28T07:31:16;13.53;;;10.90;;
50555;SDS011;36508;52.512;13.450;2023-02-28T07:33:45;14.97;;;10.30;;
50555;SDS011;36508;52.512;13.450;2023-02-28T07:36:13;10.33;;;7.77;;
50555;SDS011;36508;52.512;13.450;2023-02-28T07:38:44;16.90;;;9.20;;
50555;SDS011;36508;52.512;13.450;2023-02-28T07:41:18;11.00;;;9.03;;
50555;SDS011;36508;52.512;13.450;2023-02-28T07:43:47;13.03;;;7.53;;
50555;SDS011;36508;52.512;13.450;2023-02-28T07:46:14;12.53;;;9.73;;
50555;SDS011;36508;52.512;13.450;2023-02-28T07:48:47;18.83;;;11.10;;
50555;SDS011;36508;52.512;13.450;2023-02-28T07:51:13;16.10;;;10.43;;
50555;SDS011;36508;52.512;13.450;2023-02-28T07:53:42;20.60;;;12.00;;
50555;SDS011;36508;52.512;13.450;2023-02-28T07:56:13;13.20;;;8.43;;
50555;SDS011;36508;52.512;13.450;2023-02-28T07:58:41;9.80;;;6.10;;
50555;SDS011;36508;52.512;13.450;2023-02-28T08:01:10;8.67;;;6.67;;
50555;SDS011;36508;52.512;13.450;2023-02-28T08:03:39;13.73;;;8.20;;
50555;SDS011;36508;52.512;13.450;2023-02-28T08:06:20;11.77;;;5.30;;
50555;SDS011;36508;52.512;13.450;2023-02-28T08:08:53;6.90;;;6.20;;
50555;SDS011;36508;52.512;13.450;2023-02-28T08:11:25;15.80;;;6.33;;
50555;SDS011;36508;52.512;13.450;2023-02-28T08:13:50;5.80;;;5.13;;
50555;SDS011;36508;52.512;13.450;2023-02-28T08:16:17;9.57;;;5.47;;
50555;SDS011;36508;52.512;13.450;2023-02-28T08:18:48;6.67;;;5.40;;
50555;SDS011;36508;52.512;13.450;2023-02-28T08:21:19;11.67;;;5.60;;
50555;SDS011;36508;52.512;13.450;2023-02-28T08:23:51;8.43;;;4.03;;
50555;SDS011;36508;52.512;13.450;2023-02-28T08:26:17;17.07;;;6.47;;
50555;SDS011;36508;52.512;13.450;2023-02-28T08:28:44;5.10;;;4.60;;
50555;SDS011;36508;52.512;13.450;2023-02-28T08:31:16;6.33;;;4.77;;
50555;SDS011;36508;52.512;13.450;2023-02-28T08:33:43;4.87;;;4.37;;
50555;SDS011;36508;52.512;13.450;2023-02-28T08:36:14;11.00;;;4.17;;
50555;SDS011;36508;52.512;13.450;2023-02-28T08:38:40;7.70;;;5.57;;
50555;SDS011;36508;52.512;13.450;2023-02-28T08:41:09;6.60;;;4.80;;
50555;SDS011;36508;52.512;13.450;2023-02-28T08:43:36;8.60;;;3.80;;
50555;SDS011;36508;52.512;13.450;2023-02-28T08:46:06;6.37;;;4.30;;
50555;SDS011;36508;52.512;13.450;2023-02-28T08:48:35;6.97;;;4.20;;
50555;SDS011;36508;52.512;13.450;2023-02-28T08:51:09;7.07;;;4.30;;
50555;SDS011;36508;52.512;13.450;2023-02-28T08:53:47;7.13;;;5.37;;
50555;SDS011;36508;52.512;13.450;2023-02-28T08:56:16;5.43;;;4.67;;
50555;SDS011;36508;52.512;13.450;2023-02-28T08:58:45;6.97;;;6.27;;
50555;SDS011;36508;52.512;13.450;2023-02-28T09:01:16;9.63;;;4.50;;
50555;SDS011;36508;52.512;13.450;2023-02-28T09:03:45;3.57;;;3.27;;
50555;SDS011;36508;52.512;13.450;2023-02-28T09:06:16;7.70;;;4.30;;
50555;SDS011;36508;52.512;13.450;2023-02-28T09:08:49;9.30;;;7.23;;
50555;SDS011;36508;52.512;13.450;2023-02-28T09:11:15;4.93;;;4.43;;
50555;SDS011;36508;52.512;13.450;2023-02-28T09:13:42;3.60;;;3.30;;
50555;SDS011;36508;52.512;13.450;2023-02-28T09:16:11;3.50;;;3.20;;
50555;SDS011;36508;52.512;13.450;2023-02-28T09:18:39;4.93;;;3.50;;
50555;SDS011;36508;52.512;13.450;2023-02-28T09:21:09;3.30;;;2.27;;
50555;SDS011;36508;52.512;13.450;2023-02-28T09:23:39;5.43;;;3.60;;
50555;SDS011;36508;52.512;13.450;2023-02-28T09:26:06;3.57;;;3.27;;
50555;SDS011;36508;52.512;13.450;2023-02-28T09:28:34;4.57;;;2.70;;
50555;SDS011;36508;52.512;13.450;2023-02-28T09:31:00;4.07;;;3.60;;
50555;SDS011;36508;52.512;13.450;2023-02-28T09:33:29;5.57;;;4.03;;
50555;SDS011;36508;52.512;13.450;2023-02-28T09:35:59;4.30;;;3.60;;
50555;SDS011;36508;52.512;13.450;2023-02-28T09:38:28;5.30;;;3.97;;
50555;SDS011;36508;52.512;13.450;2023-02-28T09:41:55;3.60;;;3.30;;
50555;SDS011;36508;52.512;13.450;2023-02-28T09:43:54;4.33;;;3.93;;
50555;SDS011;36508;52.512;13.450;2023-02-28T09:46:29;3.93;;;3.63;;
50555;SDS011;36508;52.512;13.450;2023-02-28T09:49:07;7.43;;;6.83;;
50555;SDS011;36508;52.512;13.450;2023-02-28T09:54:28;9.27;;;6.20;;
50555;SDS011;36508;52.512;13.450;2023-02-28T09:57:13;5.63;;;5.13;;
50555;SDS011;36508;52.512;13.450;2023-02-28T10:05:54;2.50;;;2.30;;
50555;SDS011;36508;52.512;13.450;2023-02-28T10:11:34;4.70;;;2.53;;
50555;SDS011;36508;52.512;13.450;2023-02-28T10:16:44;3.57;;;3.13;;
50555;SDS011;36508;52.512;13.450;2023-02-28T10:20:02;6.83;;;3.53;;
50555;SDS011;36508;52.512;13.450;2023-02-28T10:22:48;9.73;;;3.80;;
50555;SDS011;36508;52.512;13.450;2023-02-28T10:25:25;4.70;;;4.20;;
50555;SDS011;36508;52.512;13.450;2023-02-28T10:27:53;4.13;;;3.73;;
50555;SDS011;36508;52.512;13.450;2023-02-28T10:30:24;3.40;;;3.10;;
50555;SDS011;36508;52.512;13.450;2023-02-28T10:32:51;7.37;;;5.20;;
50555;SDS011;36508;52.512;13.450;2023-02-28T10:35:22;3.93;;;3.63;;
50555;SDS011;36508;52.512;13.450;2023-02-28T10:37:51;8.13;;;6.70;;
50555;SDS011;36508;52.512;13.450;2023-02-28T10:40:33;3.97;;;3.67;;
50555;SDS011;36508;52.512;13.450;2023-02-28T10:45:33;6.33;;;5.83;;
50555;SDS011;36508;52.512;13.450;2023-02-28T10:48:26;5.37;;;3.57;;
50555;SDS011;36508;52.512;13.450;2023-02-28T10:50:58;5.70;;;4.00;;
50555;SDS011;36508;52.512;13.450;2023-02-28T10:54:02;2.80;;;2.70;;
50555;SDS011;36508;52.512;13.450;2023-02-28T10:56:22;6.93;;;4.40;;
50555;SDS011;36508;52.512;13.450;2023-02-28T10:59:03;5.00;;;4.50;;
50555;SDS011;36508;52.512;13.450;2023-02-28T11:01:48;3.80;;;3.00;;
50555;SDS011;36508;52.512;13.450;2023-02-28T11:04:34;3.63;;;3.37;;
50555;SDS011;36508;52.512;13.450;2023-02-28T11:07:02;3.20;;;2.40;;
50555;SDS011;36508;52.512;13.450;2023-02-28T11:09:44;5.80;;;5.00;;
50555;SDS011;36508;52.512;13.450;2023-02-28T11:12:25;2.97;;;2.80;;
50555;SDS011;36508;52.512;13.450;2023-02-28T11:14:58;3.30;;;3.00;;
50555;SDS011;36508;52.512;13.450;2023-02-28T11:17:31;5.40;;;4.77;;
50555;SDS011;36508;52.512;13.450;2023-02-28T11:19:59;3.60;;;3.03;;
50555;SDS011;36508;52.512;13.450;2023-02-28T11:22:29;5.97;;;3.23;;
50555;SDS011;36508;52.512;13.450;2023-02-28T11:25:02;2.87;;;2.67;;
50555;SDS011;36508;52.512;13.450;2023-02-28T11:27:43;3.70;;;3.43;;
50555;SDS011;36508;52.512;13.450;2023-02-28T11:32:57;3.00;;;2.80;;
50555;SDS011;36508;52.512;13.450;2023-02-28T11:37:55;3.77;;;3.47;;
50555;SDS011;36508;52.512;13.450;2023-02-28T11:45:48;3.53;;;3.30;;
50555;SDS011;36508;52.512;13.450;2023-02-28T11:48:32;5.57;;;4.03;;
50555;SDS011;36508;52.512;13.450;2023-02-28T11:56:33;4.03;;;3.73;;
50555;SDS011;36508;52.512;13.450;2023-02-28T12:06:44;3.90;;;3.60;;
50555;SDS011;36508;52.512;13.450;2023-02-28T12:12:03;4.20;;;3.90;;
50555;SDS011;36508;52.512;13.450;2023-02-28T12:17:51;6.63;;;3.77;;
50555;SDS011;36508;52.512;13.450;2023-02-28T12:19:59;4.73;;;3.10;;
50555;SDS011;36508;52.512;13.450;2023-02-28T12:25:20;4.73;;;4.30;;
50555;SDS011;36508;52.512;13.450;2023-02-28T12:27:48;3.60;;;3.30;;
50555;SDS011;36508;52.512;13.450;2023-02-28T12:30:26;3.37;;;3.07;;
50555;SDS011;36508;52.512;13.450;2023-02-28T12:32:54;2.87;;;2.67;;
50555;SDS011;36508;52.512;13.450;2023-02-28T12:35:23;13.23;;;12.03;;
50555;SDS011;36508;52.512;13.450;2023-02-28T12:40:22;3.90;;;3.27;;
50555;SDS011;36508;52.512;13.450;2023-02-28T12:42:58;3.30;;;3.10;;
50555;SDS011;36508;52.512;13.450;2023-02-28T12:45:46;7.20;;;4.53;;
50555;SDS011;36508;52.512;13.450;2023-02-28T12:48:19;6.33;;;4.53;;
50555;SDS011;36508;52.512;13.450;2023-02-28T12:50:51;4.37;;;4.07;;
50555;SDS011;36508;52.512;13.450;2023-02-28T12:56:04;3.40;;;3.20;;
50555;SDS011;36508;52.512;13.450;2023-02-28T13:01:12;3.30;;;3.10;;
50555;SDS011;36508;52.512;13.450;2023-02-28T13:04:03;8.80;;;6.23;;
50555;SDS011;36508;52.512;13.450;2023-02-28T13:09:33;3.20;;;2.90;;
50555;SDS011;36508;52.512;13.450;2023-02-28T13:11:59;4.70;;;3.93;;
50555;SDS011;36508;52.512;13.450;2023-02-28T13:19:37;2.93;;;2.73;;
50555;SDS011;36508;52.512;13.450;2023-02-28T13:25:02;4.67;;;3.80;;
50555;SDS011;36508;52.512;13.450;2023-02-28T13:27:54;5.33;;;3.90;;
50555;SDS011;36508;52.512;13.450;2023-02-28T13:33:25;4.37;;;4.07;;
50555;SDS011;36508;52.512;13.450;2023-02-28T13:38:46;3.13;;;2.93;;
50555;SDS011;36508;52.512;13.450;2023-02-28T13:44:06;4.43;;;4.10;;
50555;SDS011;36508;52.512;13.450;2023-02-28T14:03:09;6.77;;;6.20;;
50555;SDS011;36508;52.512;13.450;2023-02-28T14:08:50;4.10;;;3.80;;
50555;SDS011;36508;52.512;13.450;2023-02-28T14:11:26;4.67;;;4.27;;
50555;SDS011;36508;52.512;13.450;2023-02-28T14:13:57;6.43;;;5.90;;
50555;SDS011;36508;52.512;13.450;2023-02-28T14:16:26;3.70;;;3.50;;
50555;SDS011;36508;52.512;13.450;2023-02-28T14:18:58;3.40;;;3.13;;
50555;SDS011;36508;52.512;13.450;2023-02-28T14:21:32;4.20;;;3.80;;
50555;SDS011;36508;52.512;13.450;2023-02-28T14:27:00;6.43;;;3.00;;
50555;SDS011;36508;52.512;13.450;2023-02-28T14:37:42;9.53;;;4.90;;
50555;SDS011;36508;52.512;13.450;2023-02-28T14:40:19;7.20;;;5.57;;
50555;SDS011;36508;52.512;13.450;2023-02-28T14:43:03;4.57;;;4.17;;
50555;SDS011;36508;52.512;13.450;2023-02-28T14:45:35;4.67;;;4.27;;
50555;SDS011;36508;52.512;13.450;2023-02-28T14:48:02;4.30;;;4.00;;
50555;SDS011;36508;52.512;13.450;2023-02-28T14:50:34;5.50;;;4.83;;
50555;SDS011;36508;52.512;13.450;2023-02-28T14:53:02;6.40;;;5.90;;
50555;SDS011;36508;52.512;13.450;2023-02-28T14:55:30;5.57;;;4.10;;
50555;SDS011;36508;52.512;13.450;2023-02-28T14:58:00;5.07;;;4.70;;
50555;SDS011;36508;52.512;13.450;2023-02-28T15:00:46;3.60;;;3.30;;
50555;SDS011;36508;52.512;13.450;2023-02-28T15:05:56;5.17;;;4.67;;
50555;SDS011;36508;52.512;13.450;2023-02-28T15:08:27;3.97;;;3.50;;
50555;SDS011;36508;52.512;13.450;2023-02-28T15:13:35;5.90;;;5.07;;
50555;SDS011;36508;52.512;13.450;2023-02-28T15:19:22;6.00;;;5.50;;
50555;SDS011;36508;52.512;13.450;2023-02-28T15:22:00;8.43;;;7.63;;
50555;SDS011;36508;52.512;13.450;2023-02-28T15:24:37;11.37;;;10.07;;
50555;SDS011;36508;52.512;13.450;2023-02-28T15:30:04;8.63;;;4.07;;
50555;SDS011;36508;52.512;13.450;2023-02-28T15:32:32;6.03;;;5.43;;
50555;SDS011;36508;52.512;13.450;2023-02-28T15:37:56;5.40;;;4.23;;
50555;SDS011;36508;52.512;13.450;2023-02-28T15:40:28;4.43;;;4.03;;
50555;SDS011;36508;52.512;13.450;2023-02-28T15:42:59;4.90;;;4.53;;
50555;SDS011;36508;52.512;13.450;2023-02-28T15:45:32;5.10;;;4.70;;
50555;SDS011;36508;52.512;13.450;2023-02-28T15:48:03;5.03;;;4.63;;
50555;SDS011;36508;52.512;13.450;2023-02-28T15:56:44;4.13;;;3.67;;
50555;SDS011;36508;52.512;13.450;2023-02-28T15:59:14;5.33;;;4.23;;
50555;SDS011;36508;52.512;13.450;2023-02-28T16:01:45;4.23;;;3.90;;
50555;SDS011;36508;52.512;13.450;2023-02-28T16:06:53;5.63;;;5.23;;
50555;SDS011;36508;52.512;13.450;2023-02-28T16:09:31;8.03;;;7.00;;
50555;SDS011;36508;52.512;13.450;2023-02-28T16:12:01;6.43;;;5.83;;
50555;SDS011;36508;52.512;13.450;2023-02-28T16:14:28;5.47;;;4.90;;
50555;SDS011;36508;52.512;13.450;2023-02-28T16:17:03;5.80;;;5.30;;
50555;SDS011;36508;52.512;13.450;2023-02-28T16:19:33;6.27;;;4.40;;
50555;SDS011;36508;52.512;13.450;2023-02-28T16:22:00;6.30;;;5.27;;
50555;SDS011;36508;52.512;13.450;2023-02-28T16:24:26;10.90;;;8.20;;
50555;SDS011;36508;52.512;13.450;2023-02-28T16:26:53;6.07;;;5.47;;
50555;SDS011;36508;52.512;13.450;2023-02-28T16:29:31;4.53;;;4.17;;
50555;SDS011;36508;52.512;13.450;2023-02-28T16:32:01;5.20;;;4.70;;
50555;SDS011;36508;52.512;13.450;2023-02-28T16:34:30;5.57;;;4.93;;
50555;SDS011;36508;52.512;13.450;2023-02-28T16:36:56;9.67;;;5.13;;
50555;SDS011;36508;52.512;13.450;2023-02-28T16:39:23;6.80;;;6.20;;
50555;SDS011;36508;52.512;13.450;2023-02-28T16:41:49;13.73;;;11.33;;
50555;SDS011;36508;52.512;13.450;2023-02-28T16:44:29;14.73;;;11.40;;
50555;SDS011;36508;52.512;13.450;2023-02-28T16:47:02;9.03;;;6.93;;
50555;SDS011;36508;52.512;13.450;2023-02-28T16:49:29;7.10;;;5.20;;
50555;SDS011;36508;52.512;13.450;2023-02-28T16:51:55;9.90;;;6.13;;
50555;SDS011;36508;52.512;13.450;2023-02-28T16:54:21;6.47;;;4.93;;
50555;SDS011;36508;52.512;13.450;2023-02-28T16:56:47;7.73;;;6.40;;
50555;SDS011;36508;52.512;13.450;2023-02-28T16:59:15;9.20;;;7.37;;
50555;SDS011;36508;52.512;13.450;2023-02-28T17:01:48;11.77;;;8.00;;
50555;SDS011;36508;52.512;13.450;2023-02-28T17:04:14;7.57;;;5.60;;
50555;SDS011;36508;52.512;13.450;2023-02-28T17:06:43;7.30;;;6.67;;
50555;SDS011;36508;52.512;13.450;2023-02-28T17:09:21;11.23;;;6.90;;
50555;SDS011;36508;52.512;13.450;2023-02-28T17:11:48;6.20;;;5.60;;
50555;SDS011;36508;52.512;13.450;2023-02-28T17:14:18;6.80;;;6.10;;
50555;SDS011;36508;52.512;13.450;2023-02-28T17:16:48;6.93;;;6.20;;
50555;SDS011;36508;52.512;13.450;2023-02-28T17:19:17;7.03;;;5.20;;
50555;SDS011;36508;52.512;13.450;2023-02-28T17:22:03;7.60;;;5.70;;
50555;SDS011;36508;52.512;13.450;2023-02-28T17:24:36;8.60;;;5.43;;
50555;SDS011;36508;52.512;13.450;2023-02-28T17:27:02;17.90;;;13.63;;
50555;SDS011;36508;52.512;13.450;2023-02-28T17:29:33;7.47;;;6.77;;
50555;SDS011;36508;52.512;13.450;2023-02-28T17:31:59;6.93;;;5.60;;
50555;SDS011;36508;52.512;13.450;2023-02-28T17:34:27;7.40;;;6.70;;
50555;SDS011;36508;52.512;13.450;2023-02-28T17:36:53;6.67;;;6.03;;
50555;SDS011;36508;52.512;13.450;2023-02-28T17:39:19;8.60;;;7.80;;
50555;SDS011;36508;52.512;13.450;2023-02-28T17:41:52;9.33;;;6.97;;
50555;SDS011;36508;52.512;13.450;2023-02-28T17:44:18;7.73;;;7.03;;
50555;SDS011;36508;52.512;13.450;2023-02-28T17:46:48;7.80;;;7.10;;
50555;SDS011;36508;52.512;13.450;2023-02-28T17:49:16;13.73;;;8.50;;